sensor_id;sensor_type;location;lat;lon;timestamp;P1;durP1;ratioP1;P2;durP2;ratioP2
76935;SDS011;65881;52.438;16.744;2023-11-21T00:00:13;42.63;;;18.95;;
76935;SDS011;65881;52.438;16.744;2023-11-21T00:02:40;39.88;;;18.25;;
76935;SDS011;65881;52.438;16.744;2023-11-21T00:05:15;35.70;;;18.40;;
76935;SDS011;65881;52.438;16.744;2023-11-21T00:07:41;51.38;;;20.73;;
76935;SDS011;65881;52.438;16.744;2023-11-21T00:10:08;44.78;;;20.35;;
76935;SDS011;65881;52.438;16.744;2023-11-21T00:12:35;45.10;;;18.80;;
76935;SDS011;65881;52.438;16.744;2023-11-21T00:15:01;52.85;;;21.15;;
76935;SDS011;65881;52.438;16.744;2023-11-21T00:17:27;56.10;;;20.20;;
76935;SDS011;65881;52.438;16.744;2023-11-21T00:19:53;46.95;;;19.13;;
76935;SDS011;65881;52.438;16.744;2023-11-21T00:22:19;50.25;;;21.77;;
76935;SDS011;65881;52.438;16.744;2023-11-21T00:24:45;44.20;;;21.42;;
76935;SDS011;65881;52.438;16.744;2023-11-21T00:27:11;46.35;;;19.23;;
76935;SDS011;65881;52.438;16.744;2023-11-21T00:29:37;55.22;;;20.80;;
76935;SDS011;65881;52.438;16.744;2023-11-21T00:32:03;56.03;;;20.92;;
76935;SDS011;65881;52.438;16.744;2023-11-21T00:34:30;51.42;;;20.40;;
76935;SDS011;65881;52.438;16.744;2023-11-21T00:36:56;52.40;;;20.40;;
76935;SDS011;65881;52.438;16.744;2023-11-21T00:39:22;52.92;;;19.42;;
76935;SDS011;65881;52.438;16.744;2023-11-21T00:41:47;50.53;;;21.55;;
76935;SDS011;65881;52.438;16.744;2023-11-21T00:44:13;56.25;;;21.98;;
76935;SDS011;65881;52.438;16.744;2023-11-21T00:46:39;50.67;;;20.77;;
76935;SDS011;65881;52.438;16.744;2023-11-21T00:49:04;49.38;;;20.67;;
76935;SDS011;65881;52.438;16.744;2023-11-21T00:51:30;57.63;;;20.05;;
76935;SDS011;65881;52.438;16.744;2023-11-21T00:53:56;57.50;;;23.17;;
76935;SDS011;65881;52.438;16.744;2023-11-21T00:56:23;62.97;;;21.90;;
76935;SDS011;65881;52.438;16.744;2023-11-21T00:58:49;48.40;;;21.45;;
76935;SDS011;65881;52.438;16.744;2023-11-21T01:01:17;47.33;;;19.65;;
76935;SDS011;65881;52.438;16.744;2023-11-21T01:03:48;49.00;;;21.98;;
76935;SDS011;65881;52.438;16.744;2023-11-21T01:06:14;52.85;;;20.48;;
76935;SDS011;65881;52.438;16.744;2023-11-21T01:08:40;46.30;;;19.00;;
76935;SDS011;65881;52.438;16.744;2023-11-21T01:11:06;46.20;;;21.58;;
76935;SDS011;65881;52.438;16.744;2023-11-21T01:13:33;52.60;;;21.75;;
76935;SDS011;65881;52.438;16.744;2023-11-21T01:16:00;53.25;;;21.10;;
76935;SDS011;65881;52.438;16.744;2023-11-21T01:18:26;52.33;;;22.73;;
76935;SDS011;65881;52.438;16.744;2023-11-21T01:20:51;59.58;;;24.42;;
76935;SDS011;65881;52.438;16.744;2023-11-21T01:23:18;58.40;;;22.00;;
76935;SDS011;65881;52.438;16.744;2023-11-21T01:25:44;57.75;;;20.95;;
76935;SDS011;65881;52.438;16.744;2023-11-21T01:28:10;58.35;;;22.08;;
76935;SDS011;65881;52.438;16.744;2023-11-21T01:30:36;54.72;;;21.35;;
76935;SDS011;65881;52.438;16.744;2023-11-21T01:33:02;55.92;;;21.85;;
76935;SDS011;65881;52.438;16.744;2023-11-21T01:35:28;49.78;;;21.80;;
76935;SDS011;65881;52.438;16.744;2023-11-21T01:37:53;74.20;;;22.48;;
76935;SDS011;65881;52.438;16.744;2023-11-21T01:40:19;56.70;;;21.30;;
76935;SDS011;65881;52.438;16.744;2023-11-21T01:42:46;53.72;;;23.52;;
76935;SDS011;65881;52.438;16.744;2023-11-21T01:45:12;54.85;;;21.88;;
76935;SDS011;65881;52.438;16.744;2023-11-21T01:47:39;61.20;;;22.27;;
76935;SDS011;65881;52.438;16.744;2023-11-21T01:50:06;69.05;;;24.60;;
76935;SDS011;65881;52.438;16.744;2023-11-21T01:52:34;60.75;;;23.38;;
76935;SDS011;65881;52.438;16.744;2023-11-21T01:55:00;56.97;;;23.60;;
76935;SDS011;65881;52.438;16.744;2023-11-21T01:57:27;71.53;;;25.67;;
76935;SDS011;65881;52.438;16.744;2023-11-21T01:59:54;66.05;;;22.58;;
76935;SDS011;65881;52.438;16.744;2023-11-21T02:02:19;64.90;;;22.73;;
76935;SDS011;65881;52.438;16.744;2023-11-21T02:04:49;68.43;;;25.02;;
76935;SDS011;65881;52.438;16.744;2023-11-21T02:07:15;69.38;;;22.55;;
76935;SDS011;65881;52.438;16.744;2023-11-21T02:09:40;62.47;;;25.42;;
76935;SDS011;65881;52.438;16.744;2023-11-21T02:12:07;72.53;;;24.95;;
76935;SDS011;65881;52.438;16.744;2023-11-21T02:14:36;70.57;;;22.67;;
76935;SDS011;65881;52.438;16.744;2023-11-21T02:17:02;66.10;;;24.52;;
76935;SDS011;65881;52.438;16.744;2023-11-21T02:19:28;69.78;;;23.35;;
76935;SDS011;65881;52.438;16.744;2023-11-21T02:21:54;62.40;;;24.25;;
76935;SDS011;65881;52.438;16.744;2023-11-21T02:24:25;63.08;;;22.98;;
76935;SDS011;65881;52.438;16.744;2023-11-21T02:26:52;63.50;;;24.85;;
76935;SDS011;65881;52.438;16.744;2023-11-21T02:29:18;60.05;;;23.33;;
76935;SDS011;65881;52.438;16.744;2023-11-21T02:31:47;67.97;;;23.45;;
76935;SDS011;65881;52.438;16.744;2023-11-21T02:34:14;66.80;;;22.77;;
76935;SDS011;65881;52.438;16.744;2023-11-21T02:36:40;67.18;;;26.05;;
76935;SDS011;65881;52.438;16.744;2023-11-21T02:39:07;70.25;;;25.35;;
76935;SDS011;65881;52.438;16.744;2023-11-21T02:41:33;69.80;;;23.65;;
76935;SDS011;65881;52.438;16.744;2023-11-21T02:43:59;58.58;;;24.50;;
76935;SDS011;65881;52.438;16.744;2023-11-21T02:46:25;64.72;;;24.20;;
76935;SDS011;65881;52.438;16.744;2023-11-21T02:48:51;53.30;;;23.08;;
76935;SDS011;65881;52.438;16.744;2023-11-21T02:51:19;64.57;;;23.55;;
76935;SDS011;65881;52.438;16.744;2023-11-21T02:53:45;73.05;;;26.40;;
76935;SDS011;65881;52.438;16.744;2023-11-21T02:56:11;63.88;;;23.45;;
76935;SDS011;65881;52.438;16.744;2023-11-21T02:58:38;60.78;;;22.98;;
76935;SDS011;65881;52.438;16.744;2023-11-21T03:01:06;76.90;;;27.13;;
76935;SDS011;65881;52.438;16.744;2023-11-21T03:03:32;78.50;;;24.98;;
76935;SDS011;65881;52.438;16.744;2023-11-21T03:05:58;76.20;;;24.45;;
76935;SDS011;65881;52.438;16.744;2023-11-21T03:08:23;78.15;;;27.35;;
76935;SDS011;65881;52.438;16.744;2023-11-21T03:10:49;74.43;;;25.35;;
76935;SDS011;65881;52.438;16.744;2023-11-21T03:13:14;76.55;;;27.65;;
76935;SDS011;65881;52.438;16.744;2023-11-21T03:15:40;65.97;;;24.17;;
76935;SDS011;65881;52.438;16.744;2023-11-21T03:18:07;79.35;;;23.48;;
76935;SDS011;65881;52.438;16.744;2023-11-21T03:20:33;68.35;;;24.17;;
76935;SDS011;65881;52.438;16.744;2023-11-21T03:22:59;67.72;;;22.88;;
76935;SDS011;65881;52.438;16.744;2023-11-21T03:25:25;57.85;;;23.15;;
76935;SDS011;65881;52.438;16.744;2023-11-21T03:27:51;55.25;;;19.73;;
76935;SDS011;65881;52.438;16.744;2023-11-21T03:30:16;47.30;;;19.65;;
76935;SDS011;65881;52.438;16.744;2023-11-21T03:32:42;42.30;;;18.63;;
76935;SDS011;65881;52.438;16.744;2023-11-21T03:35:08;40.13;;;16.80;;
76935;SDS011;65881;52.438;16.744;2023-11-21T03:37:33;44.80;;;17.08;;
76935;SDS011;65881;52.438;16.744;2023-11-21T03:39:59;42.85;;;16.65;;
76935;SDS011;65881;52.438;16.744;2023-11-21T03:42:25;32.50;;;15.40;;
76935;SDS011;65881;52.438;16.744;2023-11-21T03:44:51;39.97;;;16.75;;
76935;SDS011;65881;52.438;16.744;2023-11-21T03:47:17;34.17;;;15.25;;
76935;SDS011;65881;52.438;16.744;2023-11-21T03:49:44;30.02;;;14.77;;
76935;SDS011;65881;52.438;16.744;2023-11-21T03:52:10;32.40;;;15.15;;
76935;SDS011;65881;52.438;16.744;2023-11-21T03:54:36;28.83;;;16.23;;
76935;SDS011;65881;52.438;16.744;2023-11-21T03:57:02;28.08;;;14.25;;
76935;SDS011;65881;52.438;16.744;2023-11-21T03:59:28;32.55;;;12.90;;
76935;SDS011;65881;52.438;16.744;2023-11-21T04:01:57;28.63;;;14.00;;
76935;SDS011;65881;52.438;16.744;2023-11-21T04:04:23;32.85;;;14.63;;
76935;SDS011;65881;52.438;16.744;2023-11-21T04:06:48;25.95;;;11.70;;
76935;SDS011;65881;52.438;16.744;2023-11-21T04:09:14;27.23;;;12.45;;
76935;SDS011;65881;52.438;16.744;2023-11-21T04:11:40;25.88;;;11.90;;
76935;SDS011;65881;52.438;16.744;2023-11-21T04:14:05;28.33;;;11.50;;
76935;SDS011;65881;52.438;16.744;2023-11-21T04:16:31;26.77;;;11.05;;
76935;SDS011;65881;52.438;16.744;2023-11-21T04:18:57;26.30;;;12.27;;
76935;SDS011;65881;52.438;16.744;2023-11-21T04:21:22;23.33;;;10.20;;
76935;SDS011;65881;52.438;16.744;2023-11-21T04:23:49;25.38;;;10.73;;
76935;SDS011;65881;52.438;16.744;2023-11-21T04:26:15;19.10;;;10.38;;
76935;SDS011;65881;52.438;16.744;2023-11-21T04:28:41;20.92;;;9.93;;
76935;SDS011;65881;52.438;16.744;2023-11-21T04:31:06;23.58;;;11.25;;
76935;SDS011;65881;52.438;16.744;2023-11-21T04:33:32;22.10;;;11.35;;
76935;SDS011;65881;52.438;16.744;2023-11-21T04:35:58;25.35;;;11.57;;
76935;SDS011;65881;52.438;16.744;2023-11-21T04:38:23;23.60;;;10.73;;
76935;SDS011;65881;52.438;16.744;2023-11-21T04:40:49;21.25;;;12.02;;
76935;SDS011;65881;52.438;16.744;2023-11-21T04:43:15;20.38;;;11.52;;
76935;SDS011;65881;52.438;16.744;2023-11-21T04:45:40;20.40;;;11.65;;
76935;SDS011;65881;52.438;16.744;2023-11-21T04:48:07;21.85;;;10.15;;
76935;SDS011;65881;52.438;16.744;2023-11-21T04:50:33;17.27;;;8.93;;
76935;SDS011;65881;52.438;16.744;2023-11-21T04:52:59;15.80;;;9.30;;
76935;SDS011;65881;52.438;16.744;2023-11-21T04:55:25;19.92;;;10.45;;
76935;SDS011;65881;52.438;16.744;2023-11-21T04:57:53;16.02;;;8.57;;
76935;SDS011;65881;52.438;16.744;2023-11-21T05:00:19;15.30;;;9.20;;
76935;SDS011;65881;52.438;16.744;2023-11-21T05:02:46;15.02;;;9.35;;
76935;SDS011;65881;52.438;16.744;2023-11-21T05:05:12;15.88;;;8.60;;
76935;SDS011;65881;52.438;16.744;2023-11-21T05:07:38;14.77;;;9.13;;
76935;SDS011;65881;52.438;16.744;2023-11-21T05:10:07;12.68;;;8.15;;
76935;SDS011;65881;52.438;16.744;2023-11-21T05:12:36;16.98;;;8.43;;
76935;SDS011;65881;52.438;16.744;2023-11-21T05:15:05;20.33;;;7.90;;
76935;SDS011;65881;52.438;16.744;2023-11-21T05:17:35;12.45;;;8.43;;
76935;SDS011;65881;52.438;16.744;2023-11-21T05:20:02;9.48;;;6.63;;
76935;SDS011;65881;52.438;16.744;2023-11-21T05:22:29;11.68;;;7.47;;
76935;SDS011;65881;52.438;16.744;2023-11-21T05:24:55;10.85;;;6.18;;
76935;SDS011;65881;52.438;16.744;2023-11-21T05:27:21;11.93;;;7.78;;
76935;SDS011;65881;52.438;16.744;2023-11-21T05:29:46;9.18;;;5.78;;
76935;SDS011;65881;52.438;16.744;2023-11-21T05:32:12;9.65;;;5.78;;
76935;SDS011;65881;52.438;16.744;2023-11-21T05:34:38;9.52;;;6.88;;
76935;SDS011;65881;52.438;16.744;2023-11-21T05:37:03;8.10;;;5.30;;
76935;SDS011;65881;52.438;16.744;2023-11-21T05:39:30;9.90;;;5.72;;
76935;SDS011;65881;52.438;16.744;2023-11-21T05:41:56;9.55;;;6.50;;
76935;SDS011;65881;52.438;16.744;2023-11-21T05:44:22;8.85;;;5.55;;
76935;SDS011;65881;52.438;16.744;2023-11-21T05:46:48;7.82;;;5.72;;
76935;SDS011;65881;52.438;16.744;2023-11-21T05:49:15;9.43;;;6.07;;
76935;SDS011;65881;52.438;16.744;2023-11-21T05:51:41;7.72;;;5.35;;
76935;SDS011;65881;52.438;16.744;2023-11-21T05:54:07;11.13;;;7.80;;
76935;SDS011;65881;52.438;16.744;2023-11-21T05:56:33;10.23;;;6.47;;
76935;SDS011;65881;52.438;16.744;2023-11-21T05:58:59;8.93;;;5.70;;
76935;SDS011;65881;52.438;16.744;2023-11-21T06:01:25;9.48;;;5.70;;
76935;SDS011;65881;52.438;16.744;2023-11-21T06:03:53;9.60;;;6.63;;
76935;SDS011;65881;52.438;16.744;2023-11-21T06:06:20;13.65;;;7.13;;
76935;SDS011;65881;52.438;16.744;2023-11-21T06:08:48;10.35;;;7.50;;
76935;SDS011;65881;52.438;16.744;2023-11-21T06:11:14;9.05;;;5.78;;
76935;SDS011;65881;52.438;16.744;2023-11-21T06:13:39;9.85;;;6.78;;
76935;SDS011;65881;52.438;16.744;2023-11-21T06:16:05;11.25;;;6.53;;
76935;SDS011;65881;52.438;16.744;2023-11-21T06:18:31;13.82;;;7.60;;
76935;SDS011;65881;52.438;16.744;2023-11-21T06:20:57;12.75;;;8.02;;
76935;SDS011;65881;52.438;16.744;2023-11-21T06:23:23;11.13;;;7.10;;
76935;SDS011;65881;52.438;16.744;2023-11-21T06:25:49;16.40;;;8.77;;
76935;SDS011;65881;52.438;16.744;2023-11-21T06:28:14;21.95;;;8.32;;
76935;SDS011;65881;52.438;16.744;2023-11-21T06:30:42;12.02;;;6.50;;
76935;SDS011;65881;52.438;16.744;2023-11-21T06:33:09;17.17;;;9.70;;
76935;SDS011;65881;52.438;16.744;2023-11-21T06:35:36;13.00;;;8.15;;
76935;SDS011;65881;52.438;16.744;2023-11-21T06:38:02;16.08;;;9.50;;
76935;SDS011;65881;52.438;16.744;2023-11-21T06:40:27;18.05;;;8.38;;
76935;SDS011;65881;52.438;16.744;2023-11-21T06:42:53;16.45;;;9.00;;
76935;SDS011;65881;52.438;16.744;2023-11-21T06:45:19;16.10;;;8.95;;
76935;SDS011;65881;52.438;16.744;2023-11-21T06:47:45;14.13;;;8.48;;
76935;SDS011;65881;52.438;16.744;2023-11-21T06:50:11;17.73;;;9.85;;
76935;SDS011;65881;52.438;16.744;2023-11-21T06:52:36;18.65;;;10.02;;
76935;SDS011;65881;52.438;16.744;2023-11-21T06:55:02;17.70;;;10.50;;
76935;SDS011;65881;52.438;16.744;2023-11-21T06:57:28;17.33;;;9.63;;
76935;SDS011;65881;52.438;16.744;2023-11-21T06:59:54;16.30;;;9.25;;
76935;SDS011;65881;52.438;16.744;2023-11-21T07:02:19;15.75;;;9.38;;
76935;SDS011;65881;52.438;16.744;2023-11-21T07:04:45;21.15;;;11.15;;
76935;SDS011;65881;52.438;16.744;2023-11-21T07:07:11;16.42;;;10.40;;
76935;SDS011;65881;52.438;16.744;2023-11-21T07:09:37;16.17;;;8.95;;
76935;SDS011;65881;52.438;16.744;2023-11-21T07:12:03;17.50;;;10.93;;
76935;SDS011;65881;52.438;16.744;2023-11-21T07:14:32;18.05;;;11.07;;
76935;SDS011;65881;52.438;16.744;2023-11-21T07:17:02;16.38;;;9.57;;
76935;SDS011;65881;52.438;16.744;2023-11-21T07:19:27;16.90;;;9.70;;
76935;SDS011;65881;52.438;16.744;2023-11-21T07:21:54;17.27;;;11.27;;
76935;SDS011;65881;52.438;16.744;2023-11-21T07:24:20;13.75;;;8.57;;
76935;SDS011;65881;52.438;16.744;2023-11-21T07:26:47;13.13;;;9.40;;
76935;SDS011;65881;52.438;16.744;2023-11-21T07:29:13;14.15;;;8.07;;
76935;SDS011;65881;52.438;16.744;2023-11-21T07:31:39;13.52;;;9.50;;
76935;SDS011;65881;52.438;16.744;2023-11-21T07:34:06;12.35;;;8.90;;
76935;SDS011;65881;52.438;16.744;2023-11-21T07:36:33;13.10;;;8.35;;
76935;SDS011;65881;52.438;16.744;2023-11-21T07:38:58;13.93;;;8.68;;
76935;SDS011;65881;52.438;16.744;2023-11-21T07:41:25;13.13;;;7.40;;
76935;SDS011;65881;52.438;16.744;2023-11-21T07:43:51;12.07;;;7.50;;
76935;SDS011;65881;52.438;16.744;2023-11-21T07:46:17;12.77;;;8.48;;
76935;SDS011;65881;52.438;16.744;2023-11-21T07:48:43;17.58;;;9.05;;
76935;SDS011;65881;52.438;16.744;2023-11-21T07:51:09;14.48;;;8.80;;
76935;SDS011;65881;52.438;16.744;2023-11-21T07:53:35;13.48;;;8.77;;
76935;SDS011;65881;52.438;16.744;2023-11-21T07:56:08;14.82;;;8.20;;
76935;SDS011;65881;52.438;16.744;2023-11-21T07:58:34;14.90;;;8.25;;
76935;SDS011;65881;52.438;16.744;2023-11-21T08:01:01;13.38;;;8.73;;
76935;SDS011;65881;52.438;16.744;2023-11-21T08:03:27;12.18;;;7.43;;
76935;SDS011;65881;52.438;16.744;2023-11-21T08:05:55;12.98;;;8.05;;
76935;SDS011;65881;52.438;16.744;2023-11-21T08:08:24;12.63;;;8.15;;
76935;SDS011;65881;52.438;16.744;2023-11-21T08:10:50;10.38;;;7.28;;
76935;SDS011;65881;52.438;16.744;2023-11-21T08:13:22;12.25;;;8.68;;
76935;SDS011;65881;52.438;16.744;2023-11-21T08:15:49;13.25;;;7.35;;
76935;SDS011;65881;52.438;16.744;2023-11-21T08:18:14;12.13;;;7.75;;
76935;SDS011;65881;52.438;16.744;2023-11-21T08:20:41;12.95;;;8.10;;
76935;SDS011;65881;52.438;16.744;2023-11-21T08:23:07;13.10;;;8.15;;
76935;SDS011;65881;52.438;16.744;2023-11-21T08:25:32;12.68;;;8.52;;
76935;SDS011;65881;52.438;16.744;2023-11-21T08:27:59;16.48;;;7.55;;
76935;SDS011;65881;52.438;16.744;2023-11-21T08:30:26;12.55;;;7.45;;
76935;SDS011;65881;52.438;16.744;2023-11-21T08:32:54;13.80;;;8.25;;
76935;SDS011;65881;52.438;16.744;2023-11-21T08:35:23;15.30;;;7.75;;
76935;SDS011;65881;52.438;16.744;2023-11-21T08:37:51;9.38;;;7.00;;
76935;SDS011;65881;52.438;16.744;2023-11-21T08:40:18;12.77;;;7.50;;
76935;SDS011;65881;52.438;16.744;2023-11-21T08:42:44;11.15;;;7.57;;
76935;SDS011;65881;52.438;16.744;2023-11-21T08:45:10;11.25;;;6.97;;
76935;SDS011;65881;52.438;16.744;2023-11-21T08:47:37;14.45;;;8.05;;
76935;SDS011;65881;52.438;16.744;2023-11-21T08:50:04;14.88;;;8.48;;
76935;SDS011;65881;52.438;16.744;2023-11-21T08:52:32;14.15;;;8.35;;
76935;SDS011;65881;52.438;16.744;2023-11-21T08:54:58;16.35;;;8.85;;
76935;SDS011;65881;52.438;16.744;2023-11-21T08:57:29;11.10;;;7.97;;
76935;SDS011;65881;52.438;16.744;2023-11-21T08:59:54;16.10;;;9.70;;
76935;SDS011;65881;52.438;16.744;2023-11-21T09:02:25;15.25;;;10.23;;
76935;SDS011;65881;52.438;16.744;2023-11-21T09:04:51;15.30;;;9.88;;
76935;SDS011;65881;52.438;16.744;2023-11-21T09:07:18;16.38;;;9.88;;
76935;SDS011;65881;52.438;16.744;2023-11-21T09:09:45;17.95;;;9.35;;
76935;SDS011;65881;52.438;16.744;2023-11-21T09:12:11;15.85;;;9.93;;
76935;SDS011;65881;52.438;16.744;2023-11-21T09:14:37;19.15;;;11.30;;
76935;SDS011;65881;52.438;16.744;2023-11-21T09:17:04;22.33;;;12.60;;
76935;SDS011;65881;52.438;16.744;2023-11-21T09:19:35;18.52;;;10.90;;
76935;SDS011;65881;52.438;16.744;2023-11-21T09:22:02;20.88;;;11.77;;
76935;SDS011;65881;52.438;16.744;2023-11-21T09:24:27;24.58;;;12.95;;
76935;SDS011;65881;52.438;16.744;2023-11-21T09:26:53;21.45;;;12.30;;
76935;SDS011;65881;52.438;16.744;2023-11-21T09:29:19;23.00;;;13.75;;
76935;SDS011;65881;52.438;16.744;2023-11-21T09:31:45;20.42;;;12.68;;
76935;SDS011;65881;52.438;16.744;2023-11-21T09:34:10;22.15;;;12.90;;
76935;SDS011;65881;52.438;16.744;2023-11-21T09:36:36;22.67;;;13.38;;
76935;SDS011;65881;52.438;16.744;2023-11-21T09:39:04;19.58;;;11.98;;
76935;SDS011;65881;52.438;16.744;2023-11-21T09:41:50;24.35;;;14.35;;
76935;SDS011;65881;52.438;16.744;2023-11-21T09:44:35;25.33;;;15.55;;
76935;SDS011;65881;52.438;16.744;2023-11-21T09:47:10;26.42;;;13.00;;
76935;SDS011;65881;52.438;16.744;2023-11-21T09:49:39;26.40;;;14.30;;
76935;SDS011;65881;52.438;16.744;2023-11-21T09:52:05;23.35;;;13.65;;
76935;SDS011;65881;52.438;16.744;2023-11-21T09:54:34;23.63;;;13.45;;
76935;SDS011;65881;52.438;16.744;2023-11-21T09:57:00;24.30;;;15.25;;
76935;SDS011;65881;52.438;16.744;2023-11-21T09:59:29;27.85;;;15.00;;
76935;SDS011;65881;52.438;16.744;2023-11-21T10:02:02;28.27;;;14.93;;
76935;SDS011;65881;52.438;16.744;2023-11-21T10:04:28;23.05;;;13.57;;
76935;SDS011;65881;52.438;16.744;2023-11-21T10:06:54;24.48;;;13.52;;
76935;SDS011;65881;52.438;16.744;2023-11-21T10:09:20;25.33;;;14.82;;
76935;SDS011;65881;52.438;16.744;2023-11-21T10:11:48;26.08;;;15.48;;
76935;SDS011;65881;52.438;16.744;2023-11-21T10:14:16;23.58;;;13.15;;
76935;SDS011;65881;52.438;16.744;2023-11-21T10:16:46;25.70;;;14.85;;
76935;SDS011;65881;52.438;16.744;2023-11-21T10:19:14;28.15;;;15.82;;
76935;SDS011;65881;52.438;16.744;2023-11-21T10:21:41;25.02;;;14.95;;
76935;SDS011;65881;52.438;16.744;2023-11-21T10:24:07;24.52;;;13.32;;
76935;SDS011;65881;52.438;16.744;2023-11-21T10:26:33;21.27;;;12.15;;
76935;SDS011;65881;52.438;16.744;2023-11-21T10:28:59;26.13;;;16.05;;
76935;SDS011;65881;52.438;16.744;2023-11-21T10:31:32;31.67;;;15.80;;
76935;SDS011;65881;52.438;16.744;2023-11-21T10:36:41;26.42;;;15.68;;
76935;SDS011;65881;52.438;16.744;2023-11-21T10:39:07;23.15;;;14.90;;
76935;SDS011;65881;52.438;16.744;2023-11-21T10:41:34;27.95;;;15.55;;
76935;SDS011;65881;52.438;16.744;2023-11-21T10:44:01;23.90;;;16.52;;
76935;SDS011;65881;52.438;16.744;2023-11-21T10:46:31;24.60;;;16.55;;
76935;SDS011;65881;52.438;16.744;2023-11-21T10:48:57;24.13;;;14.65;;
76935;SDS011;65881;52.438;16.744;2023-11-21T10:51:22;27.35;;;16.23;;
76935;SDS011;65881;52.438;16.744;2023-11-21T10:53:52;25.17;;;14.30;;
76935;SDS011;65881;52.438;16.744;2023-11-21T10:56:18;23.88;;;16.23;;
76935;SDS011;65881;52.438;16.744;2023-11-21T10:58:46;25.60;;;14.13;;
76935;SDS011;65881;52.438;16.744;2023-11-21T11:01:15;22.10;;;14.25;;
76935;SDS011;65881;52.438;16.744;2023-11-21T11:03:43;20.77;;;13.27;;
76935;SDS011;65881;52.438;16.744;2023-11-21T11:06:10;24.80;;;15.02;;
76935;SDS011;65881;52.438;16.744;2023-11-21T11:08:37;35.20;;;14.38;;
76935;SDS011;65881;52.438;16.744;2023-11-21T11:11:04;23.85;;;12.13;;
76935;SDS011;65881;52.438;16.744;2023-11-21T11:13:30;27.92;;;16.23;;
76935;SDS011;65881;52.438;16.744;2023-11-21T11:16:00;21.08;;;13.73;;
76935;SDS011;65881;52.438;16.744;2023-11-21T11:18:27;22.95;;;13.98;;
76935;SDS011;65881;52.438;16.744;2023-11-21T11:20:54;22.05;;;13.38;;
76935;SDS011;65881;52.438;16.744;2023-11-21T11:23:59;21.15;;;13.85;;
76935;SDS011;65881;52.438;16.744;2023-11-21T11:26:51;23.73;;;14.40;;
76935;SDS011;65881;52.438;16.744;2023-11-21T11:35:17;25.52;;;18.27;;
76935;SDS011;65881;52.438;16.744;2023-11-21T11:37:50;29.15;;;18.80;;
76935;SDS011;65881;52.438;16.744;2023-11-21T11:40:16;29.20;;;17.92;;
76935;SDS011;65881;52.438;16.744;2023-11-21T11:42:57;31.48;;;17.80;;
76935;SDS011;65881;52.438;16.744;2023-11-21T11:45:33;27.63;;;16.63;;
76935;SDS011;65881;52.438;16.744;2023-11-21T11:48:00;35.33;;;17.90;;
76935;SDS011;65881;52.438;16.744;2023-11-21T11:50:27;32.10;;;18.80;;
76935;SDS011;65881;52.438;16.744;2023-11-21T11:52:53;31.83;;;19.30;;
76935;SDS011;65881;52.438;16.744;2023-11-21T11:55:22;34.03;;;18.77;;
76935;SDS011;65881;52.438;16.744;2023-11-21T11:57:52;33.58;;;19.52;;
76935;SDS011;65881;52.438;16.744;2023-11-21T12:02:54;29.45;;;16.40;;
76935;SDS011;65881;52.438;16.744;2023-11-21T12:05:22;37.22;;;19.77;;
76935;SDS011;65881;52.438;16.744;2023-11-21T12:10:19;37.97;;;20.20;;
76935;SDS011;65881;52.438;16.744;2023-11-21T12:12:55;30.67;;;19.20;;
76935;SDS011;65881;52.438;16.744;2023-11-21T12:15:30;31.05;;;17.77;;
76935;SDS011;65881;52.438;16.744;2023-11-21T12:17:56;34.33;;;18.90;;
76935;SDS011;65881;52.438;16.744;2023-11-21T12:20:24;32.60;;;19.77;;
76935;SDS011;65881;52.438;16.744;2023-11-21T12:25:25;32.10;;;17.92;;
76935;SDS011;65881;52.438;16.744;2023-11-21T12:27:57;31.52;;;17.92;;
76935;SDS011;65881;52.438;16.744;2023-11-21T12:30:25;31.77;;;17.40;;
76935;SDS011;65881;52.438;16.744;2023-11-21T12:32:56;28.65;;;18.92;;
76935;SDS011;65881;52.438;16.744;2023-11-21T12:35:26;34.30;;;19.58;;
76935;SDS011;65881;52.438;16.744;2023-11-21T12:37:54;32.72;;;17.80;;
76935;SDS011;65881;52.438;16.744;2023-11-21T12:40:22;30.33;;;16.98;;
76935;SDS011;65881;52.438;16.744;2023-11-21T12:42:48;28.73;;;16.40;;
76935;SDS011;65881;52.438;16.744;2023-11-21T12:47:46;30.10;;;17.13;;
76935;SDS011;65881;52.438;16.744;2023-11-21T12:50:19;24.05;;;14.43;;
76935;SDS011;65881;52.438;16.744;2023-11-21T12:52:48;25.05;;;14.40;;
76935;SDS011;65881;52.438;16.744;2023-11-21T12:55:19;33.85;;;19.48;;
76935;SDS011;65881;52.438;16.744;2023-11-21T12:57:49;31.45;;;19.23;;
76935;SDS011;65881;52.438;16.744;2023-11-21T13:00:17;35.65;;;18.73;;
76935;SDS011;65881;52.438;16.744;2023-11-21T13:02:57;33.70;;;17.58;;
76935;SDS011;65881;52.438;16.744;2023-11-21T13:05:32;35.58;;;20.52;;
76935;SDS011;65881;52.438;16.744;2023-11-21T13:08:03;32.45;;;18.67;;
76935;SDS011;65881;52.438;16.744;2023-11-21T13:10:32;43.17;;;20.17;;
76935;SDS011;65881;52.438;16.744;2023-11-21T13:13:01;32.65;;;17.17;;
76935;SDS011;65881;52.438;16.744;2023-11-21T13:15:30;34.10;;;17.65;;
76935;SDS011;65881;52.438;16.744;2023-11-21T13:17:58;30.75;;;18.98;;
76935;SDS011;65881;52.438;16.744;2023-11-21T13:20:27;36.92;;;20.00;;
76935;SDS011;65881;52.438;16.744;2023-11-21T13:22:56;31.30;;;18.10;;
76935;SDS011;65881;52.438;16.744;2023-11-21T13:25:26;41.92;;;20.40;;
76935;SDS011;65881;52.438;16.744;2023-11-21T13:27:59;31.70;;;17.75;;
76935;SDS011;65881;52.438;16.744;2023-11-21T13:30:25;39.22;;;18.10;;
76935;SDS011;65881;52.438;16.744;2023-11-21T13:32:52;26.77;;;16.40;;
76935;SDS011;65881;52.438;16.744;2023-11-21T13:35:22;33.28;;;18.77;;
76935;SDS011;65881;52.438;16.744;2023-11-21T13:37:56;32.75;;;17.92;;
76935;SDS011;65881;52.438;16.744;2023-11-21T13:40:25;31.33;;;17.38;;
76935;SDS011;65881;52.438;16.744;2023-11-21T13:42:52;38.95;;;20.70;;
76935;SDS011;65881;52.438;16.744;2023-11-21T13:45:20;30.40;;;18.33;;
76935;SDS011;65881;52.438;16.744;2023-11-21T13:47:48;34.72;;;17.63;;
76935;SDS011;65881;52.438;16.744;2023-11-21T13:50:18;32.42;;;17.75;;
76935;SDS011;65881;52.438;16.744;2023-11-21T13:52:49;34.92;;;18.33;;
76935;SDS011;65881;52.438;16.744;2023-11-21T13:55:17;38.05;;;17.38;;
76935;SDS011;65881;52.438;16.744;2023-11-21T13:57:43;30.20;;;18.88;;
76935;SDS011;65881;52.438;16.744;2023-11-21T14:00:14;29.40;;;17.58;;
76935;SDS011;65881;52.438;16.744;2023-11-21T14:03:01;32.30;;;16.90;;
76935;SDS011;65881;52.438;16.744;2023-11-21T14:05:30;29.48;;;17.75;;
76935;SDS011;65881;52.438;16.744;2023-11-21T14:07:57;34.35;;;18.48;;
76935;SDS011;65881;52.438;16.744;2023-11-21T14:10:31;30.25;;;17.27;;
76935;SDS011;65881;52.438;16.744;2023-11-21T14:13:08;28.35;;;16.88;;
76935;SDS011;65881;52.438;16.744;2023-11-21T14:15:35;33.75;;;16.90;;
76935;SDS011;65881;52.438;16.744;2023-11-21T14:18:07;30.63;;;17.65;;
76935;SDS011;65881;52.438;16.744;2023-11-21T14:20:35;30.63;;;18.55;;
76935;SDS011;65881;52.438;16.744;2023-11-21T14:23:02;34.13;;;15.82;;
76935;SDS011;65881;52.438;16.744;2023-11-21T14:25:31;30.08;;;14.90;;
76935;SDS011;65881;52.438;16.744;2023-11-21T14:27:57;29.40;;;15.23;;
76935;SDS011;65881;52.438;16.744;2023-11-21T14:30:23;25.63;;;14.93;;
76935;SDS011;65881;52.438;16.744;2023-11-21T14:32:48;23.45;;;16.23;;